sensor_id;sensor_type;location;lat;lon;timestamp;temperature;humidity
10042;DHT22;5061;49.068;12.058;2022-07-01T00:01:20;20.90;96.20
10042;DHT22;5061;49.068;12.058;2022-07-01T00:04:40;20.90;96.30
10042;DHT22;5061;49.068;12.058;2022-07-01T00:08:01;20.80;96.30
10042;DHT22;5061;49.068;12.058;2022-07-01T00:11:22;20.90;96.40
10042;DHT22;5061;49.068;12.058;2022-07-01T00:14:42;20.80;96.50
10042;DHT22;5061;49.068;12.058;2022-07-01T00:18:03;20.80;96.70
10042;DHT22;5061;49.068;12.058;2022-07-01T00:21:24;20.80;96.80
10042;DHT22;5061;49.068;12.058;2022-07-01T00:24:44;20.70;96.90
10042;DHT22;5061;49.068;12.058;2022-07-01T00:28:06;20.70;97.20
10042;DHT22;5061;49.068;12.058;2022-07-01T00:31:27;20.70;97.30
10042;DHT22;5061;49.068;12.058;2022-07-01T00:34:47;20.70;97.50
10042;DHT22;5061;49.068;12.058;2022-07-01T00:38:08;20.80;97.90
10042;DHT22;5061;49.068;12.058;2022-07-01T00:41:29;20.80;98.20
10042;DHT22;5061;49.068;12.058;2022-07-01T00:44:49;20.80;98.20
10042;DHT22;5061;49.068;12.058;2022-07-01T00:48:10;20.90;98.10
10042;DHT22;5061;49.068;12.058;2022-07-01T00:51:30;20.90;97.90
10042;DHT22;5061;49.068;12.058;2022-07-01T00:54:52;20.90;97.90
10042;DHT22;5061;49.068;12.058;2022-07-01T00:58:14;20.90;97.60
10042;DHT22;5061;49.068;12.058;2022-07-01T01:01:34;20.90;97.30
10042;DHT22;5061;49.068;12.058;2022-07-01T01:04:55;20.90;97.10
10042;DHT22;5061;49.068;12.058;2022-07-01T01:08:16;20.90;97.00
10042;DHT22;5061;49.068;12.058;2022-07-01T01:11:37;20.90;96.80
10042;DHT22;5061;49.068;12.058;2022-07-01T01:14:57;20.90;96.60
10042;DHT22;5061;49.068;12.058;2022-07-01T01:18:18;20.90;96.40
10042;DHT22;5061;49.068;12.058;2022-07-01T01:21:39;20.80;96.30
10042;DHT22;5061;49.068;12.058;2022-07-01T01:24:59;20.80;96.20
10042;DHT22;5061;49.068;12.058;2022-07-01T01:28:20;20.80;96.10
10042;DHT22;5061;49.068;12.058;2022-07-01T01:31:41;20.80;96.00
10042;DHT22;5061;49.068;12.058;2022-07-01T01:35:02;20.70;96.00
10042;DHT22;5061;49.068;12.058;2022-07-01T01:38:22;20.70;95.90
10042;DHT22;5061;49.068;12.058;2022-07-01T01:41:44;20.70;95.80
10042;DHT22;5061;49.068;12.058;2022-07-01T01:45:05;20.70;95.80
10042;DHT22;5061;49.068;12.058;2022-07-01T01:48:26;20.70;95.80
10042;DHT22;5061;49.068;12.058;2022-07-01T01:51:47;20.70;95.80
10042;DHT22;5061;49.068;12.058;2022-07-01T01:55:08;20.70;95.80
10042;DHT22;5061;49.068;12.058;2022-07-01T01:58:29;20.60;95.70
10042;DHT22;5061;49.068;12.058;2022-07-01T02:01:50;20.60;95.70
10042;DHT22;5061;49.068;12.058;2022-07-01T02:05:12;20.60;95.70
10042;DHT22;5061;49.068;12.058;2022-07-01T02:08:33;20.50;95.60
10042;DHT22;5061;49.068;12.058;2022-07-01T02:11:54;20.50;95.60
10042;DHT22;5061;49.068;12.058;2022-07-01T02:15:14;20.50;95.60
10042;DHT22;5061;49.068;12.058;2022-07-01T02:18:35;20.40;95.50
10042;DHT22;5061;49.068;12.058;2022-07-01T02:21:55;20.30;95.50
10042;DHT22;5061;49.068;12.058;2022-07-01T02:25:16;20.30;95.50
10042;DHT22;5061;49.068;12.058;2022-07-01T02:28:37;20.30;95.60
10042;DHT22;5061;49.068;12.058;2022-07-01T02:31:58;20.20;95.60
10042;DHT22;5061;49.068;12.058;2022-07-01T02:35:18;20.10;95.60
10042;DHT22;5061;49.068;12.058;2022-07-01T02:38:39;20.10;95.70
10042;DHT22;5061;49.068;12.058;2022-07-01T02:42:00;20.10;95.70
10042;DHT22;5061;49.068;12.058;2022-07-01T02:45:39;20.10;95.70
10042;DHT22;5061;49.068;12.058;2022-07-01T02:49:02;20.10;95.70
10042;DHT22;5061;49.068;12.058;2022-07-01T02:52:23;20.00;95.70
10042;DHT22;5061;49.068;12.058;2022-07-01T02:55:43;20.00;95.70
10042;DHT22;5061;49.068;12.058;2022-07-01T02:59:04;20.00;95.80
10042;DHT22;5061;49.068;12.058;2022-07-01T03:02:25;19.90;95.90
10042;DHT22;5061;49.068;12.058;2022-07-01T03:05:45;19.90;96.00
10042;DHT22;5061;49.068;12.058;2022-07-01T03:09:07;19.80;96.10
10042;DHT22;5061;49.068;12.058;2022-07-01T03:12:28;19.80;96.10
10042;DHT22;5061;49.068;12.058;2022-07-01T03:15:49;19.70;96.20
10042;DHT22;5061;49.068;12.058;2022-07-01T03:19:09;19.70;96.20
10042;DHT22;5061;49.068;12.058;2022-07-01T03:22:31;19.70;96.20
10042;DHT22;5061;49.068;12.058;2022-07-01T03:25:52;19.60;96.20
10042;DHT22;5061;49.068;12.058;2022-07-01T03:29:12;19.60;96.20
10042;DHT22;5061;49.068;12.058;2022-07-01T03:32:33;19.50;96.30
10042;DHT22;5061;49.068;12.058;2022-07-01T03:35:57;19.50;96.20
10042;DHT22;5061;49.068;12.058;2022-07-01T03:39:18;19.50;96.30
10042;DHT22;5061;49.068;12.058;2022-07-01T03:42:38;19.50;96.30
10042;DHT22;5061;49.068;12.058;2022-07-01T03:46:00;19.40;96.20
10042;DHT22;5061;49.068;12.058;2022-07-01T03:49:21;19.40;96.30
10042;DHT22;5061;49.068;12.058;2022-07-01T03:52:42;19.40;96.30
10042;DHT22;5061;49.068;12.058;2022-07-01T03:56:03;19.40;96.30
10042;DHT22;5061;49.068;12.058;2022-07-01T03:59:25;19.30;96.20
10042;DHT22;5061;49.068;12.058;2022-07-01T04:02:48;19.30;96.20
10042;DHT22;5061;49.068;12.058;2022-07-01T04:06:09;19.20;96.20
10042;DHT22;5061;49.068;12.058;2022-07-01T04:09:30;19.20;96.20
10042;DHT22;5061;49.068;12.058;2022-07-01T04:12:51;19.20;96.30
10042;DHT22;5061;49.068;12.058;2022-07-01T04:16:12;19.20;96.30
10042;DHT22;5061;49.068;12.058;2022-07-01T04:19:33;19.20;96.30
10042;DHT22;5061;49.068;12.058;2022-07-01T04:22:54;19.10;96.30
10042;DHT22;5061;49.068;12.058;2022-07-01T04:26:16;19.20;96.40
10042;DHT22;5061;49.068;12.058;2022-07-01T04:29:37;19.20;96.40
10042;DHT22;5061;49.068;12.058;2022-07-01T04:32:57;19.20;96.50
10042;DHT22;5061;49.068;12.058;2022-07-01T04:36:18;19.10;96.40
10042;DHT22;5061;49.068;12.058;2022-07-01T04:39:39;19.10;96.50
10042;DHT22;5061;49.068;12.058;2022-07-01T04:43:00;19.10;96.50
10042;DHT22;5061;49.068;12.058;2022-07-01T04:46:20;19.10;96.50
10042;DHT22;5061;49.068;12.058;2022-07-01T04:49:41;19.10;96.60
10042;DHT22;5061;49.068;12.058;2022-07-01T04:53:02;19.10;96.60
10042;DHT22;5061;49.068;12.058;2022-07-01T04:56:22;19.10;96.60
10042;DHT22;5061;49.068;12.058;2022-07-01T04:59:43;19.00;96.60
10042;DHT22;5061;49.068;12.058;2022-07-01T05:03:04;19.00;96.70
10042;DHT22;5061;49.068;12.058;2022-07-01T05:06:24;19.00;96.70
10042;DHT22;5061;49.068;12.058;2022-07-01T05:09:45;19.00;96.70
10042;DHT22;5061;49.068;12.058;2022-07-01T05:13:05;19.00;96.70
10042;DHT22;5061;49.068;12.058;2022-07-01T05:16:27;19.00;96.80
10042;DHT22;5061;49.068;12.058;2022-07-01T05:19:48;19.00;96.80
10042;DHT22;5061;49.068;12.058;2022-07-01T05:23:27;19.00;96.80
10042;DHT22;5061;49.068;12.058;2022-07-01T05:26:48;19.00;96.80
10042;DHT22;5061;49.068;12.058;2022-07-01T05:30:09;19.00;96.80
10042;DHT22;5061;49.068;12.058;2022-07-01T05:33:30;19.00;96.80
10042;DHT22;5061;49.068;12.058;2022-07-01T05:36:51;18.90;96.80
10042;DHT22;5061;49.068;12.058;2022-07-01T05:40:12;18.90;96.80
10042;DHT22;5061;49.068;12.058;2022-07-01T05:43:33;18.90;96.80
10042;DHT22;5061;49.068;12.058;2022-07-01T05:46:54;19.00;96.90
10042;DHT22;5061;49.068;12.058;2022-07-01T05:50:14;19.00;96.90
10042;DHT22;5061;49.068;12.058;2022-07-01T05:53:36;19.10;97.00
10042;DHT22;5061;49.068;12.058;2022-07-01T05:56:56;19.10;97.00
10042;DHT22;5061;49.068;12.058;2022-07-01T06:00:17;19.10;97.10
10042;DHT22;5061;49.068;12.058;2022-07-01T06:03:38;19.10;97.10
10042;DHT22;5061;49.068;12.058;2022-07-01T06:06:59;19.20;97.20
10042;DHT22;5061;49.068;12.058;2022-07-01T06:10:19;19.20;97.20
10042;DHT22;5061;49.068;12.058;2022-07-01T06:13:40;19.20;97.20
10042;DHT22;5061;49.068;12.058;2022-07-01T06:17:01;19.30;97.20
10042;DHT22;5061;49.068;12.058;2022-07-01T06:20:21;19.30;97.20
10042;DHT22;5061;49.068;12.058;2022-07-01T06:23:42;19.30;97.10
10042;DHT22;5061;49.068;12.058;2022-07-01T06:27:03;19.30;97.10
10042;DHT22;5061;49.068;12.058;2022-07-01T06:30:24;19.40;97.10
10042;DHT22;5061;49.068;12.058;2022-07-01T06:33:45;19.40;97.10
10042;DHT22;5061;49.068;12.058;2022-07-01T06:37:05;19.30;97.10
10042;DHT22;5061;49.068;12.058;2022-07-01T06:40:26;19.30;97.10
10042;DHT22;5061;49.068;12.058;2022-07-01T06:43:47;19.20;97.20
10042;DHT22;5061;49.068;12.058;2022-07-01T06:47:08;19.20;97.50
10042;DHT22;5061;49.068;12.058;2022-07-01T06:50:28;19.20;97.30
10042;DHT22;5061;49.068;12.058;2022-07-01T06:53:49;19.20;97.30
10042;DHT22;5061;49.068;12.058;2022-07-01T06:57:10;19.30;97.30
10042;DHT22;5061;49.068;12.058;2022-07-01T07:00:31;19.30;97.40
10042;DHT22;5061;49.068;12.058;2022-07-01T07:03:51;19.30;97.40
10042;DHT22;5061;49.068;12.058;2022-07-01T07:07:12;19.20;97.60
10042;DHT22;5061;49.068;12.058;2022-07-01T07:10:33;19.10;97.30
10042;DHT22;5061;49.068;12.058;2022-07-01T07:13:53;19.10;97.40
10042;DHT22;5061;49.068;12.058;2022-07-01T07:17:14;19.00;97.50
10042;DHT22;5061;49.068;12.058;2022-07-01T07:20:34;19.00;97.60
10042;DHT22;5061;49.068;12.058;2022-07-01T07:23:55;18.90;97.50
10042;DHT22;5061;49.068;12.058;2022-07-01T07:27:17;18.90;97.60
10042;DHT22;5061;49.068;12.058;2022-07-01T07:30:41;18.80;97.60
10042;DHT22;5061;49.068;12.058;2022-07-01T07:34:01;18.70;97.80
10042;DHT22;5061;49.068;12.058;2022-07-01T07:37:45;18.50;97.70
10042;DHT22;5061;49.068;12.058;2022-07-01T07:41:07;18.40;97.70
10042;DHT22;5061;49.068;12.058;2022-07-01T07:44:28;18.30;97.80
10042;DHT22;5061;49.068;12.058;2022-07-01T07:47:49;18.10;97.80
10042;DHT22;5061;49.068;12.058;2022-07-01T07:51:11;18.10;98.00
10042;DHT22;5061;49.068;12.058;2022-07-01T07:54:36;18.10;98.10
10042;DHT22;5061;49.068;12.058;2022-07-01T07:58:00;18.10;98.10
10042;DHT22;5061;49.068;12.058;2022-07-01T08:01:25;18.00;98.00
10042;DHT22;5061;49.068;12.058;2022-07-01T08:04:46;17.90;98.00
10042;DHT22;5061;49.068;12.058;2022-07-01T08:08:09;18.00;98.00
10042;DHT22;5061;49.068;12.058;2022-07-01T08:11:30;17.90;98.00
10042;DHT22;5061;49.068;12.058;2022-07-01T08:14:51;18.00;98.00
10042;DHT22;5061;49.068;12.058;2022-07-01T08:18:12;17.90;98.00
10042;DHT22;5061;49.068;12.058;2022-07-01T08:21:35;17.90;98.10
10042;DHT22;5061;49.068;12.058;2022-07-01T08:24:57;17.90;98.10
10042;DHT22;5061;49.068;12.058;2022-07-01T08:28:20;17.90;98.20
10042;DHT22;5061;49.068;12.058;2022-07-01T08:31:41;17.80;98.20
10042;DHT22;5061;49.068;12.058;2022-07-01T08:35:02;17.80;98.20
10042;DHT22;5061;49.068;12.058;2022-07-01T08:38:25;17.70;98.20
10042;DHT22;5061;49.068;12.058;2022-07-01T08:41:46;17.70;98.30
10042;DHT22;5061;49.068;12.058;2022-07-01T08:45:08;17.70;98.40
10042;DHT22;5061;49.068;12.058;2022-07-01T08:48:29;17.80;98.40
10042;DHT22;5061;49.068;12.058;2022-07-01T08:51:50;17.90;98.50
10042;DHT22;5061;49.068;12.058;2022-07-01T08:55:10;18.00;98.40
10042;DHT22;5061;49.068;12.058;2022-07-01T08:58:31;18.10;98.30
10042;DHT22;5061;49.068;12.058;2022-07-01T09:02:00;18.20;98.30
10042;DHT22;5061;49.068;12.058;2022-07-01T09:05:23;18.30;98.30
10042;DHT22;5061;49.068;12.058;2022-07-01T09:08:44;18.40;98.30
10042;DHT22;5061;49.068;12.058;2022-07-01T09:12:06;18.50;98.20
10042;DHT22;5061;49.068;12.058;2022-07-01T09:15:31;18.60;98.20
10042;DHT22;5061;49.068;12.058;2022-07-01T09:19:02;18.70;98.10
10042;DHT22;5061;49.068;12.058;2022-07-01T09:22:23;18.70;98.00
10042;DHT22;5061;49.068;12.058;2022-07-01T09:25:49;18.70;97.80
10042;DHT22;5061;49.068;12.058;2022-07-01T09:29:13;18.70;97.90
10042;DHT22;5061;49.068;12.058;2022-07-01T09:32:33;18.70;97.90
10042;DHT22;5061;49.068;12.058;2022-07-01T09:35:55;18.70;97.90
10042;DHT22;5061;49.068;12.058;2022-07-01T09:39:16;18.60;97.80
10042;DHT22;5061;49.068;12.058;2022-07-01T09:42:44;18.50;97.70
10042;DHT22;5061;49.068;12.058;2022-07-01T09:46:10;18.40;97.70
10042;DHT22;5061;49.068;12.058;2022-07-01T09:49:31;18.30;97.70
10042;DHT22;5061;49.068;12.058;2022-07-01T09:52:52;18.20;97.70
10042;DHT22;5061;49.068;12.058;2022-07-01T09:56:12;18.10;97.80
10042;DHT22;5061;49.068;12.058;2022-07-01T09:59:33;18.10;97.80
10042;DHT22;5061;49.068;12.058;2022-07-01T10:02:54;18.00;97.80
10042;DHT22;5061;49.068;12.058;2022-07-01T10:06:31;18.00;97.80
10042;DHT22;5061;49.068;12.058;2022-07-01T10:10:22;18.00;97.80
10042;DHT22;5061;49.068;12.058;2022-07-01T10:13:45;18.00;97.90
10042;DHT22;5061;49.068;12.058;2022-07-01T10:17:06;17.90;97.80
10042;DHT22;5061;49.068;12.058;2022-07-01T10:20:28;17.90;97.80
10042;DHT22;5061;49.068;12.058;2022-07-01T10:23:49;17.80;97.80
10042;DHT22;5061;49.068;12.058;2022-07-01T10:27:23;17.80;98.00
10042;DHT22;5061;49.068;12.058;2022-07-01T10:34:22;17.80;97.90
10042;DHT22;5061;49.068;12.058;2022-07-01T10:38:01;17.80;97.90
10042;DHT22;5061;49.068;12.058;2022-07-01T10:41:25;17.80;98.00
10042;DHT22;5061;49.068;12.058;2022-07-01T10:45:00;17.80;98.00
10042;DHT22;5061;49.068;12.058;2022-07-01T10:48:23;17.80;98.00
10042;DHT22;5061;49.068;12.058;2022-07-01T10:51:52;17.80;98.10
10042;DHT22;5061;49.068;12.058;2022-07-01T10:55:13;17.90;98.10
10042;DHT22;5061;49.068;12.058;2022-07-01T10:58:38;18.00;98.00
10042;DHT22;5061;49.068;12.058;2022-07-01T11:01:59;18.00;97.90
10042;DHT22;5061;49.068;12.058;2022-07-01T11:05:29;18.00;97.70
10042;DHT22;5061;49.068;12.058;2022-07-01T11:08:51;18.00;97.70
10042;DHT22;5061;49.068;12.058;2022-07-01T11:12:15;18.00;97.60
10042;DHT22;5061;49.068;12.058;2022-07-01T11:15:36;18.00;97.60
10042;DHT22;5061;49.068;12.058;2022-07-01T11:18:56;17.90;97.40
10042;DHT22;5061;49.068;12.058;2022-07-01T11:22:18;17.80;97.40
10042;DHT22;5061;49.068;12.058;2022-07-01T11:25:39;17.80;97.30
10042;DHT22;5061;49.068;12.058;2022-07-01T11:29:01;17.70;97.20
10042;DHT22;5061;49.068;12.058;2022-07-01T11:32:30;17.70;97.10
10042;DHT22;5061;49.068;12.058;2022-07-01T11:35:51;17.70;97.10
10042;DHT22;5061;49.068;12.058;2022-07-01T11:39:31;17.70;97.10
10042;DHT22;5061;49.068;12.058;2022-07-01T11:42:56;17.70;97.00
10042;DHT22;5061;49.068;12.058;2022-07-01T11:46:17;17.70;96.90
10042;DHT22;5061;49.068;12.058;2022-07-01T11:49:45;17.70;96.80
10042;DHT22;5061;49.068;12.058;2022-07-01T11:53:07;17.70;96.80
10042;DHT22;5061;49.068;12.058;2022-07-01T11:56:35;17.70;96.80
10042;DHT22;5061;49.068;12.058;2022-07-01T12:00:09;17.70;96.80
10042;DHT22;5061;49.068;12.058;2022-07-01T12:03:31;17.70;96.80
10042;DHT22;5061;49.068;12.058;2022-07-01T12:06:52;17.70;96.80
10042;DHT22;5061;49.068;12.058;2022-07-01T12:10:14;17.60;96.70
10042;DHT22;5061;49.068;12.058;2022-07-01T12:13:37;17.60;96.60
10042;DHT22;5061;49.068;12.058;2022-07-01T12:17:04;17.60;96.60
10042;DHT22;5061;49.068;12.058;2022-07-01T12:20:32;17.50;96.40
10042;DHT22;5061;49.068;12.058;2022-07-01T12:24:13;17.40;96.30
10042;DHT22;5061;49.068;12.058;2022-07-01T12:27:35;17.40;96.30
10042;DHT22;5061;49.068;12.058;2022-07-01T12:31:14;17.30;96.30
10042;DHT22;5061;49.068;12.058;2022-07-01T12:34:49;17.30;96.40
10042;DHT22;5061;49.068;12.058;2022-07-01T12:38:16;17.30;96.20
10042;DHT22;5061;49.068;12.058;2022-07-01T12:41:37;17.30;96.30
10042;DHT22;5061;49.068;12.058;2022-07-01T12:45:04;17.30;96.30
10042;DHT22;5061;49.068;12.058;2022-07-01T12:48:26;17.30;96.10
10042;DHT22;5061;49.068;12.058;2022-07-01T12:51:47;17.30;96.10
10042;DHT22;5061;49.068;12.058;2022-07-01T12:55:18;17.20;96.10
10042;DHT22;5061;49.068;12.058;2022-07-01T12:58:40;17.20;96.10
10042;DHT22;5061;49.068;12.058;2022-07-01T13:02:01;17.20;96.10
10042;DHT22;5061;49.068;12.058;2022-07-01T13:05:22;17.20;96.10
10042;DHT22;5061;49.068;12.058;2022-07-01T13:08:43;17.20;96.20
10042;DHT22;5061;49.068;12.058;2022-07-01T13:12:04;17.20;96.20
10042;DHT22;5061;49.068;12.058;2022-07-01T13:15:25;17.20;96.20
10042;DHT22;5061;49.068;12.058;2022-07-01T13:18:46;17.10;96.20
10042;DHT22;5061;49.068;12.058;2022-07-01T13:22:06;17.00;96.20
10042;DHT22;5061;49.068;12.058;2022-07-01T13:25:27;16.90;96.30
10042;DHT22;5061;49.068;12.058;2022-07-01T13:28:48;16.80;96.40
10042;DHT22;5061;49.068;12.058;2022-07-01T13:32:09;16.70;96.50
10042;DHT22;5061;49.068;12.058;2022-07-01T13:35:32;16.70;96.70
10042;DHT22;5061;49.068;12.058;2022-07-01T13:38:53;16.60;96.80
10042;DHT22;5061;49.068;12.058;2022-07-01T13:42:14;16.60;97.00
10042;DHT22;5061;49.068;12.058;2022-07-01T13:45:34;16.60;97.20
10042;DHT22;5061;49.068;12.058;2022-07-01T13:48:55;16.50;97.40
10042;DHT22;5061;49.068;12.058;2022-07-01T13:52:16;16.50;97.40
10042;DHT22;5061;49.068;12.058;2022-07-01T13:55:37;16.50;97.50
10042;DHT22;5061;49.068;12.058;2022-07-01T13:58:57;16.50;97.60
10042;DHT22;5061;49.068;12.058;2022-07-01T14:02:18;16.50;97.70
10042;DHT22;5061;49.068;12.058;2022-07-01T14:05:39;16.50;97.80
10042;DHT22;5061;49.068;12.058;2022-07-01T14:09:00;16.50;97.70
10042;DHT22;5061;49.068;12.058;2022-07-01T14:12:20;16.40;97.70
10042;DHT22;5061;49.068;12.058;2022-07-01T14:15:41;16.40;97.80
10042;DHT22;5061;49.068;12.058;2022-07-01T14:19:02;16.40;97.90
10042;DHT22;5061;49.068;12.058;2022-07-01T14:22:23;16.30;97.80
10042;DHT22;5061;49.068;12.058;2022-07-01T14:25:43;16.30;97.80
10042;DHT22;5061;49.068;12.058;2022-07-01T14:29:05;16.20;97.80
10042;DHT22;5061;49.068;12.058;2022-07-01T14:32:26;16.20;97.80
10042;DHT22;5061;49.068;12.058;2022-07-01T14:35:48;16.20;97.80
10042;DHT22;5061;49.068;12.058;2022-07-01T14:39:10;16.20;97.90
10042;DHT22;5061;49.068;12.058;2022-07-01T14:42:31;16.10;97.80
10042;DHT22;5061;49.068;12.058;2022-07-01T14:45:51;16.10;97.80
10042;DHT22;5061;49.068;12.058;2022-07-01T14:49:12;16.10;97.80
10042;DHT22;5061;49.068;12.058;2022-07-01T14:52:35;16.00;98.20
10042;DHT22;5061;49.068;12.058;2022-07-01T14:55:55;16.00;97.90
10042;DHT22;5061;49.068;12.058;2022-07-01T14:59:16;15.90;98.10
10042;DHT22;5061;49.068;12.058;2022-07-01T15:02:37;15.90;98.10
10042;DHT22;5061;49.068;12.058;2022-07-01T15:05:58;15.80;98.10
10042;DHT22;5061;49.068;12.058;2022-07-01T15:09:19;15.80;98.20
10042;DHT22;5061;49.068;12.058;2022-07-01T15:12:42;15.70;98.30
10042;DHT22;5061;49.068;12.058;2022-07-01T15:16:03;15.70;98.30
10042;DHT22;5061;49.068;12.058;2022-07-01T15:19:25;15.70;98.40
10042;DHT22;5061;49.068;12.058;2022-07-01T15:22:46;15.70;98.40
10042;DHT22;5061;49.068;12.058;2022-07-01T15:26:07;15.70;98.50
10042;DHT22;5061;49.068;12.058;2022-07-01T15:29:28;15.60;98.50
10042;DHT22;5061;49.068;12.058;2022-07-01T15:32:49;15.60;98.60
10042;DHT22;5061;49.068;12.058;2022-07-01T15:36:09;15.50;98.60
10042;DHT22;5061;49.068;12.058;2022-07-01T15:39:30;15.50;98.60
10042;DHT22;5061;49.068;12.058;2022-07-01T15:42:54;15.60;98.80
10042;DHT22;5061;49.068;12.058;2022-07-01T15:46:14;15.60;98.90
10042;DHT22;5061;49.068;12.058;2022-07-01T15:49:35;15.60;98.90
10042;DHT22;5061;49.068;12.058;2022-07-01T15:52:56;15.70;99.20
10042;DHT22;5061;49.068;12.058;2022-07-01T15:56:16;15.70;99.00
10042;DHT22;5061;49.068;12.058;2022-07-01T15:59:40;15.80;99.10
10042;DHT22;5061;49.068;12.058;2022-07-01T16:03:01;15.80;99.30
10042;DHT22;5061;49.068;12.058;2022-07-01T16:06:22;15.80;99.00
10042;DHT22;5061;49.068;12.058;2022-07-01T16:09:43;15.70;98.90
10042;DHT22;5061;49.068;12.058;2022-07-01T16:13:04;15.80;99.00
10042;DHT22;5061;49.068;12.058;2022-07-01T16:16:31;15.80;98.90
10042;DHT22;5061;49.068;12.058;2022-07-01T16:19:52;15.80;98.80
10042;DHT22;5061;49.068;12.058;2022-07-01T16:23:24;15.90;98.90
10042;DHT22;5061;49.068;12.058;2022-07-01T16:26:45;15.80;98.80
10042;DHT22;5061;49.068;12.058;2022-07-01T16:30:07;15.90;98.80
10042;DHT22;5061;49.068;12.058;2022-07-01T16:33:27;15.90;98.80
10042;DHT22;5061;49.068;12.058;2022-07-01T16:36:51;15.90;98.70
10042;DHT22;5061;49.068;12.058;2022-07-01T16:40:15;15.90;98.70
10042;DHT22;5061;49.068;12.058;2022-07-01T16:43:46;15.90;98.70
10042;DHT22;5061;49.068;12.058;2022-07-01T16:47:07;16.00;98.80
10042;DHT22;5061;49.068;12.058;2022-07-01T16:50:28;16.10;98.90
10042;DHT22;5061;49.068;12.058;2022-07-01T16:53:53;16.20;98.80
10042;DHT22;5061;49.068;12.058;2022-07-01T16:57:15;16.20;98.80
10042;DHT22;5061;49.068;12.058;2022-07-01T17:00:38;16.30;98.80
10042;DHT22;5061;49.068;12.058;2022-07-01T17:03:59;16.30;98.70
10042;DHT22;5061;49.068;12.058;2022-07-01T17:07:21;16.40;98.80
10042;DHT22;5061;49.068;12.058;2022-07-01T17:10:41;16.50;98.80
10042;DHT22;5061;49.068;12.058;2022-07-01T17:14:04;16.60;98.70
10042;DHT22;5061;49.068;12.058;2022-07-01T17:17:25;16.70;98.70
10042;DHT22;5061;49.068;12.058;2022-07-01T17:20:46;16.70;98.50
10042;DHT22;5061;49.068;12.058;2022-07-01T17:24:10;16.70;98.50
10042;DHT22;5061;49.068;12.058;2022-07-01T17:34:17;16.70;98.60
10042;DHT22;5061;49.068;12.058;2022-07-01T17:37:45;16.70;98.60
10042;DHT22;5061;49.068;12.058;2022-07-01T17:41:08;16.60;98.50
10042;DHT22;5061;49.068;12.058;2022-07-01T17:44:30;16.60;98.50
10042;DHT22;5061;49.068;12.058;2022-07-01T17:47:51;16.60;98.40
10042;DHT22;5061;49.068;12.058;2022-07-01T17:51:14;16.60;98.40
10042;DHT22;5061;49.068;12.058;2022-07-01T17:54:35;16.50;98.30
10042;DHT22;5061;49.068;12.058;2022-07-01T17:57:59;16.50;98.30
10042;DHT22;5061;49.068;12.058;2022-07-01T18:01:21;16.40;98.30
10042;DHT22;5061;49.068;12.058;2022-07-01T18:04:43;16.40;98.30
10042;DHT22;5061;49.068;12.058;2022-07-01T18:08:04;16.40;98.30
10042;DHT22;5061;49.068;12.058;2022-07-01T18:15:14;16.30;98.20
10042;DHT22;5061;49.068;12.058;2022-07-01T18:18:41;16.20;98.20
10042;DHT22;5061;49.068;12.058;2022-07-01T18:22:13;16.20;98.20
10042;DHT22;5061;49.068;12.058;2022-07-01T18:25:39;16.10;98.20
10042;DHT22;5061;49.068;12.058;2022-07-01T18:29:00;16.10;98.20
10042;DHT22;5061;49.068;12.058;2022-07-01T18:32:23;16.10;98.20
10042;DHT22;5061;49.068;12.058;2022-07-01T18:35:47;16.00;98.20
10042;DHT22;5061;49.068;12.058;2022-07-01T18:39:12;15.90;98.10
10042;DHT22;5061;49.068;12.058;2022-07-01T18:42:33;15.90;98.20
10042;DHT22;5061;49.068;12.058;2022-07-01T18:45:54;15.80;98.20
10042;DHT22;5061;49.068;12.058;2022-07-01T18:49:15;15.90;98.30
10042;DHT22;5061;49.068;12.058;2022-07-01T18:56:52;15.80;98.20
10042;DHT22;5061;49.068;12.058;2022-07-01T19:00:21;15.80;98.20
10042;DHT22;5061;49.068;12.058;2022-07-01T19:03:48;15.70;98.20
10042;DHT22;5061;49.068;12.058;2022-07-01T19:07:08;15.60;98.20
10042;DHT22;5061;49.068;12.058;2022-07-01T19:10:30;15.60;98.20
10042;DHT22;5061;49.068;12.058;2022-07-01T19:13:51;15.60;98.30
10042;DHT22;5061;49.068;12.058;2022-07-01T19:17:11;15.50;98.20
10042;DHT22;5061;49.068;12.058;2022-07-01T19:20:32;15.50;98.30
10042;DHT22;5061;49.068;12.058;2022-07-01T19:23:53;15.40;98.20
10042;DHT22;5061;49.068;12.058;2022-07-01T19:27:14;15.40;98.30
10042;DHT22;5061;49.068;12.058;2022-07-01T19:30:35;15.30;98.20
10042;DHT22;5061;49.068;12.058;2022-07-01T19:33:56;15.30;98.30
10042;DHT22;5061;49.068;12.058;2022-07-01T19:37:17;15.30;98.30
10042;DHT22;5061;49.068;12.058;2022-07-01T19:40:38;15.20;98.30
10042;DHT22;5061;49.068;12.058;2022-07-01T19:43:59;15.10;98.30
10042;DHT22;5061;49.068;12.058;2022-07-01T19:47:21;15.10;98.30
10042;DHT22;5061;49.068;12.058;2022-07-01T19:50:42;15.10;98.30
10042;DHT22;5061;49.068;12.058;2022-07-01T19:54:04;15.10;98.40
10042;DHT22;5061;49.068;12.058;2022-07-01T19:57:24;15.00;98.30
10042;DHT22;5061;49.068;12.058;2022-07-01T20:00:48;15.00;98.30
10042;DHT22;5061;49.068;12.058;2022-07-01T20:04:34;14.90;98.30
10042;DHT22;5061;49.068;12.058;2022-07-01T20:08:03;14.80;98.30
10042;DHT22;5061;49.068;12.058;2022-07-01T20:11:23;14.80;98.30
10042;DHT22;5061;49.068;12.058;2022-07-01T20:14:45;14.80;98.50
10042;DHT22;5061;49.068;12.058;2022-07-01T20:18:06;14.70;98.40
10042;DHT22;5061;49.068;12.058;2022-07-01T20:21:26;14.60;98.40
10042;DHT22;5061;49.068;12.058;2022-07-01T20:24:47;14.60;98.40
10042;DHT22;5061;49.068;12.058;2022-07-01T20:28:08;14.60;98.50
10042;DHT22;5061;49.068;12.058;2022-07-01T20:31:28;14.50;98.40
10042;DHT22;5061;49.068;12.058;2022-07-01T20:34:49;14.50;98.40
10042;DHT22;5061;49.068;12.058;2022-07-01T20:38:10;14.40;98.40
10042;DHT22;5061;49.068;12.058;2022-07-01T20:41:30;14.40;98.50
10042;DHT22;5061;49.068;12.058;2022-07-01T20:44:52;14.40;98.50
10042;DHT22;5061;49.068;12.058;2022-07-01T20:48:13;14.30;98.50
10042;DHT22;5061;49.068;12.058;2022-07-01T20:51:33;14.30;98.60
10042;DHT22;5061;49.068;12.058;2022-07-01T20:54:55;14.30;98.60
10042;DHT22;5061;49.068;12.058;2022-07-01T20:58:15;14.30;98.60
10042;DHT22;5061;49.068;12.058;2022-07-01T21:01:36;14.30;98.70
10042;DHT22;5061;49.068;12.058;2022-07-01T21:04:57;14.30;98.70
10042;DHT22;5061;49.068;12.058;2022-07-01T21:08:18;14.30;98.70
10042;DHT22;5061;49.068;12.058;2022-07-01T21:11:39;14.20;98.60
10042;DHT22;5061;49.068;12.058;2022-07-01T21:14:59;14.20;98.70
10042;DHT22;5061;49.068;12.058;2022-07-01T21:18:20;14.20;98.70
10042;DHT22;5061;49.068;12.058;2022-07-01T21:21:41;14.20;98.70
10042;DHT22;5061;49.068;12.058;2022-07-01T21:25:01;14.20;98.80
10042;DHT22;5061;49.068;12.058;2022-07-01T21:28:22;14.10;98.70
10042;DHT22;5061;49.068;12.058;2022-07-01T21:31:43;14.10;98.80
10042;DHT22;5061;49.068;12.058;2022-07-01T21:35:06;14.10;98.90